Time;durP1;ratioP1;P1;durP2;ratioP2;P2;SDS_P1;SDS_P2;PMS_P1;PMS_P2;Temp;Humidity;BMP_temperature;BMP_pressure;BME280_temperature;BME280_humidity;BME280_pressure;Samples;Min_cycle;Max_cycle;Signal;HPM_P1;HPM_P2
2022/01/03 00:00:51;;;;;;;21.58;3.50;;;8.10;82.70;;;;;;4126851;28;20041;-90
2022/01/03 00:02:57;;;;;;;26.98;3.33;;;8.00;82.60;;;;;;4118113;28;20031;-90
2022/01/03 00:05:00;;;;;;;19.75;3.15;;;8.10;82.60;;;;;;4148649;28;20033;-91
2022/01/03 00:07:01;;;;;;;17.55;2.97;;;8.00;82.60;;;;;;4118844;28;20033;-90
2022/01/03 00:09:02;;;;;;;28.13;4.18;;;8.00;82.50;;;;;;4180044;28;20051;-90
2022/01/03 00:11:03;;;;;;;32.47;3.72;;;8.00;82.50;;;;;;4132394;28;20034;-91
2022/01/03 00:13:05;;;;;;;25.27;3.45;;;8.00;82.50;;;;;;4148669;28;20026;-91
2022/01/03 00:15:15;;;;;;;23.83;3.25;;;8.00;83.20;;;;;;4166197;28;20036;-91
2022/01/03 00:17:18;;;;;;;25.77;3.42;;;8.00;82.50;;;;;;4133775;28;20053;-90
2022/01/03 00:19:22;;;;;;;18.27;3.45;;;8.00;82.50;;;;;;4147755;28;20029;-91
2022/01/03 00:21:29;;;;;;;17.95;3.58;;;8.00;82.60;;;;;;4158185;28;20029;-91
2022/01/03 00:23:35;;;;;;;29.95;3.45;;;8.00;82.50;;;;;;4167949;28;20029;-91
2022/01/03 00:25:41;;;;;;;20.50;3.45;;;8.00;82.60;;;;;;4132858;28;20034;-90
2022/01/03 00:28:02;;;;;;;25.00;3.40;;;8.00;82.50;;;;;;4130869;28;20027;-90
2022/01/03 00:30:03;;;;;;;20.65;3.67;;;8.00;82.50;;;;;;4164614;28;20103;-90
2022/01/03 00:32:04;;;;;;;25.52;4.18;;;8.00;82.50;;;;;;4150096;28;20022;-91
2022/01/03 00:34:06;;;;;;;19.75;3.83;;;8.00;82.50;;;;;;4172393;28;20029;-90
2022/01/03 00:36:07;;;;;;;26.38;4.10;;;8.00;82.50;;;;;;4112877;28;20019;-90
2022/01/03 00:38:09;;;;;;;24.05;4.40;;;8.00;82.60;;;;;;4147277;28;20639;-91
2022/01/03 00:40:10;;;;;;;30.15;4.97;;;8.00;82.60;;;;;;4146119;28;20024;-91
2022/01/03 00:42:18;;;;;;;22.95;4.28;;;8.00;82.70;;;;;;4165529;28;20515;-91
2022/01/03 00:44:22;;;;;;;25.17;5.10;;;8.00;82.60;;;;;;4140794;28;20033;-91
2022/01/03 00:46:22;;;;;;;33.97;5.45;;;7.90;82.70;;;;;;4128938;28;20499;-91
2022/01/03 00:48:26;;;;;;;22.17;4.05;;;8.00;82.80;;;;;;4130504;28;20102;-90
2022/01/03 00:50:29;;;;;;;26.25;4.55;;;7.90;82.80;;;;;;4137489;28;20034;-91
2022/01/03 00:52:33;;;;;;;30.42;5.05;;;8.00;82.90;;;;;;4146226;28;20371;-90
2022/01/03 00:54:34;;;;;;;17.10;3.67;;;8.00;83.00;;;;;;4143031;28;20105;-91
2022/01/03 00:56:43;;;;;;;22.55;4.22;;;8.00;83.00;;;;;;4140677;28;20042;-89
2022/01/03 01:01:32;;;;;;;17.08;3.95;;;7.90;82.90;;;;;;4145934;28;20025;-90
2022/01/03 01:03:37;;;;;;;24.90;4.55;;;8.00;83.00;;;;;;4134023;28;20044;-90
2022/01/03 01:05:47;;;;;;;34.33;5.05;;;7.90;82.90;;;;;;4142565;28;20030;-90
2022/01/03 01:07:56;;;;;;;26.05;5.28;;;8.00;83.00;;;;;;4163426;28;20115;-90
2022/01/03 01:10:02;;;;;;;24.75;5.82;;;8.00;83.10;;;;;;4130356;28;20042;-90
2022/01/03 01:12:06;;;;;;;26.02;4.88;;;7.90;83.00;;;;;;4139100;28;20033;-90
2022/01/03 01:14:19;;;;;;;23.08;5.80;;;8.00;83.10;;;;;;4134902;28;20030;-90
2022/01/03 01:16:40;;;;;;;20.58;4.78;;;7.90;83.20;;;;;;4151857;28;20021;-92
2022/01/03 01:18:41;;;;;;;25.10;4.97;;;7.90;83.30;;;;;;4147113;28;20025;-91
2022/01/03 01:20:54;;;;;;;24.02;4.50;;;7.90;83.30;;;;;;4131460;28;20129;-90
2022/01/03 01:23:10;;;;;;;;;;;;;;;;;;;;;
2022/01/03 01:28:14;;;;;;;15.15;3.90;;;7.90;83.40;;;;;;4101647;28;20132;-91
2022/01/03 01:30:39;;;;;;;25.05;4.32;;;7.90;83.50;;;;;;4083092;29;20188;-91
2022/01/03 01:33:13;;;;;;;20.45;3.75;;;7.90;83.50;;;;;;4144092;28;20144;-91
2022/01/03 01:35:37;;;;;;;17.40;3.50;;;7.90;83.50;;;;;;4129464;28;20053;-91
2022/01/03 01:38:19;;;;;;;19.98;4.28;;;7.90;83.50;;;;;;4153791;28;20026;-91
2022/01/03 01:41:09;;;;;;;26.15;3.35;;;7.90;83.60;;;;;;4147923;28;20476;-91
2022/01/03 01:43:14;;;;;;;16.73;2.90;;;7.80;83.70;;;;;;4158761;28;20067;-91
2022/01/03 01:48:11;;;;;;;16.77;2.60;;;7.80;84.80;;;;;;4132424;28;20222;-90
2022/01/03 01:50:34;;;;;;;13.07;2.42;;;7.80;84.10;;;;;;4149504;28;20507;-91
2022/01/03 01:52:59;;;;;;;13.13;2.50;;;7.80;84.40;;;;;;4131476;28;20424;-91
2022/01/03 01:55:41;;;;;;;9.30;2.17;;;7.70;84.30;;;;;;4142206;28;20511;-91
2022/01/03 02:01:07;;;;;;;9.40;1.97;;;7.80;84.60;;;;;;4131674;28;20484;-91
2022/01/03 02:04:02;;;;;;;10.77;1.92;;;7.80;84.80;;;;;;4123458;28;20050;-91
2022/01/03 02:06:30;;;;;;;12.75;2.20;;;7.80;84.70;;;;;;4128772;28;20655;-91
2022/01/03 02:09:31;;;;;;;11.38;1.50;;;7.70;84.50;;;;;;4148800;28;20087;-91
2022/01/03 02:12:16;;;;;;;8.63;1.20;;;7.70;84.30;;;;;;4072426;29;20127;-91
2022/01/03 02:14:40;;;;;;;7.93;1.45;;;7.70;84.30;;;;;;4149347;28;20160;-91
2022/01/03 02:20:51;;;;;;;12.85;1.52;;;7.60;84.20;;;;;;4118236;28;20077;-91
2022/01/03 02:27:44;;;;;;;;;;;;;;;;;;;;;
2022/01/03 02:30:36;;;;;;;12.32;1.70;;;7.60;84.40;;;;;;4117233;28;20047;-92
2022/01/03 02:33:35;;;;;;;23.95;2.53;;;7.50;85.10;;;;;;4115958;28;20066;-90
2022/01/03 02:36:53;;;;;;;;;;;;;;;;;;;;;
2022/01/03 02:39:54;;;;;;;19.35;2.20;;;7.50;84.60;;;;;;4169771;28;20111;-90
2022/01/03 02:42:28;;;;;;;15.48;2.28;;;7.50;84.60;;;;;;4134389;28;20109;-91
2022/01/03 02:48:53;;;;;;;19.27;2.00;;;7.50;84.90;;;;;;4110885;28;20433;-90
2022/01/03 02:51:41;;;;;;;20.75;2.10;;;7.50;84.90;;;;;;4121999;28;20143;-90
2022/01/03 02:54:29;;;;;;;22.00;2.35;;;7.50;84.90;;;;;;4154915;28;20043;-91
2022/01/03 03:00:50;;;;;;;21.98;2.10;;;7.50;84.90;;;;;;4164107;28;20083;-91
2022/01/03 03:03:46;;;;;;;;;;;;;;;;;;;;;
2022/01/03 03:09:31;;;;;;;16.95;1.73;;;7.50;84.70;;;;;;4079790;23;20040;-74
2022/01/03 03:11:33;;;;;;;22.92;2.35;;;7.60;84.70;;;;;;4144514;28;20045;-74
2022/01/03 03:13:33;;;;;;;15.07;2.15;;;7.50;84.60;;;;;;4132415;28;20029;-75
2022/01/03 03:15:34;;;;;;;20.45;3.45;;;7.50;84.60;;;;;;4141868;28;20485;-75
2022/01/03 03:17:36;;;;;;;23.40;2.60;;;7.50;84.60;;;;;;4138564;28;20025;-75
2022/01/03 03:19:56;;;;;;;17.17;2.00;;;7.50;84.60;;;;;;4126830;28;20141;-74
2022/01/03 03:21:57;;;;;;;13.85;1.65;;;7.50;84.60;;;;;;4136004;28;20034;-74
2022/01/03 03:23:58;;;;;;;20.10;2.70;;;7.50;84.60;;;;;;4116137;28;20207;-74
2022/01/03 03:25:58;;;;;;;15.00;1.70;;;7.50;84.60;;;;;;4125274;28;20034;-74
2022/01/03 03:28:01;;;;;;;16.77;1.77;;;7.50;84.50;;;;;;4124552;28;20494;-75
2022/01/03 03:30:04;;;;;;;10.73;1.98;;;7.50;84.40;;;;;;4110708;28;20273;-75
2022/01/03 03:32:05;;;;;;;31.00;3.28;;;7.50;84.40;;;;;;4126051;28;20038;-74
2022/01/03 03:34:05;;;;;;;19.35;2.95;;;7.50;84.20;;;;;;4116499;28;20110;-75
2022/01/03 03:36:07;;;;;;;9.45;1.95;;;7.50;84.20;;;;;;4108088;28;20041;-74
2022/01/03 03:38:08;;;;;;;24.65;2.72;;;7.50;84.20;;;;;;4124569;28;20081;-74
2022/01/03 03:40:09;;;;;;;11.15;1.60;;;7.50;84.40;;;;;;4114232;28;20463;-75
2022/01/03 03:42:10;;;;;;;10.55;1.63;;;7.50;84.90;;;;;;4117778;28;20042;-75
2022/01/03 03:44:11;;;;;;;21.05;2.17;;;7.50;84.20;;;;;;4118400;28;20384;-74
2022/01/03 03:46:12;;;;;;;19.48;3.05;;;7.50;84.20;;;;;;4125107;28;20571;-75
2022/01/03 03:48:13;;;;;;;17.77;3.08;;;7.50;84.20;;;;;;4128003;28;20030;-74
2022/01/03 03:50:13;;;;;;;23.20;2.90;;;7.50;84.20;;;;;;4119256;28;20511;-75
2022/01/03 03:52:14;;;;;;;22.23;2.45;;;7.50;84.20;;;;;;4111035;28;20207;-75
2022/01/03 03:54:14;;;;;;;26.13;3.45;;;7.50;84.20;;;;;;4126435;28;20471;-74
2022/01/03 03:56:15;;;;;;;15.88;2.05;;;7.50;84.20;;;;;;4126578;28;20034;-74
2022/01/03 03:58:16;;;;;;;22.23;2.33;;;7.50;84.10;;;;;;4119338;28;20034;-74
2022/01/03 04:00:17;;;;;;;21.73;2.42;;;7.50;84.10;;;;;;4127603;28;20084;-74
2022/01/03 04:02:18;;;;;;;22.35;3.08;;;7.50;84.00;;;;;;4110618;28;20038;-74
2022/01/03 04:04:19;;;;;;;20.75;2.38;;;7.50;84.00;;;;;;4126282;28;20026;-74
2022/01/03 04:06:19;;;;;;;28.40;2.88;;;7.50;83.90;;;;;;4123454;28;20486;-74
2022/01/03 04:08:20;;;;;;;14.60;2.00;;;7.50;83.70;;;;;;4123773;28;20493;-74
2022/01/03 04:10:20;;;;;;;21.90;2.58;;;7.50;83.60;;;;;;4126271;28;20065;-74
2022/01/03 04:12:21;;;;;;;33.03;3.30;;;7.50;83.50;;;;;;4126996;28;20052;-74
2022/01/03 04:14:22;;;;;;;18.15;2.60;;;7.40;83.50;;;;;;4127754;28;20029;-74
2022/01/03 04:16:22;;;;;;;24.17;4.00;;;7.40;83.60;;;;;;4115517;28;20030;-74
2022/01/03 04:18:23;;;;;;;21.77;2.40;;;7.50;83.60;;;;;;4119914;28;20089;-74
2022/01/03 04:20:25;;;;;;;27.92;3.65;;;7.50;83.70;;;;;;4127040;28;20034;-75
2022/01/03 04:22:26;;;;;;;28.27;2.90;;;7.40;83.70;;;;;;4128050;28;20453;-74
2022/01/03 04:24:26;;;;;;;37.55;3.08;;;7.50;84.40;;;;;;4125986;28;20034;-74
2022/01/03 04:26:27;;;;;;;23.67;3.38;;;7.50;83.70;;;;;;4126497;28;20053;-74
2022/01/03 04:28:28;;;;;;;28.00;3.22;;;7.40;83.60;;;;;;4127642;28;20042;-75
2022/01/03 04:30:29;;;;;;;25.08;3.35;;;7.50;83.70;;;;;;4128513;28;20477;-74
2022/01/03 04:32:29;;;;;;;32.38;4.00;;;7.50;83.70;;;;;;4126399;28;20031;-74
2022/01/03 04:34:30;;;;;;;39.55;4.25;;;7.50;83.60;;;;;;4113062;28;20396;-74
2022/01/03 04:36:30;;;;;;;27.30;4.00;;;7.50;83.60;;;;;;4123242;28;20027;-74
2022/01/03 04:38:32;;;;;;;36.38;4.35;;;7.50;83.50;;;;;;4123941;28;20360;-74
2022/01/03 04:40:33;;;;;;;26.13;3.10;;;7.50;83.50;;;;;;4129391;28;20042;-74
2022/01/03 04:42:34;;;;;;;21.92;3.67;;;7.60;83.60;;;;;;4116854;28;20061;-74
2022/01/03 04:44:34;;;;;;;28.00;3.75;;;7.60;83.60;;;;;;4114174;28;20031;-74
2022/01/03 04:46:35;;;;;;;28.88;2.83;;;7.60;83.50;;;;;;4128779;28;20189;-75
2022/01/03 04:48:37;;;;;;;29.73;3.42;;;7.60;83.50;;;;;;4127309;28;20031;-75
2022/01/03 04:50:37;;;;;;;24.75;3.65;;;7.60;83.30;;;;;;4133451;28;20046;-74
2022/01/03 04:52:38;;;;;;;33.10;3.83;;;7.70;83.20;;;;;;4114155;28;20023;-72
2022/01/03 04:54:38;;;;;;;29.75;3.47;;;7.70;83.10;;;;;;4114126;28;20054;-72
2022/01/03 04:56:39;;;;;;;32.00;3.45;;;7.70;83.10;;;;;;4129011;28;20095;-72
2022/01/03 04:58:40;;;;;;;37.28;4.00;;;7.60;82.80;;;;;;4126179;28;20482;-72
2022/01/03 05:00:40;;;;;;;26.30;3.53;;;7.70;83.00;;;;;;4124528;28;20033;-72
2022/01/03 05:02:41;;;;;;;33.03;3.15;;;7.70;82.90;;;;;;4128474;28;20158;-72
2022/01/03 05:04:42;;;;;;;23.98;4.10;;;7.60;82.70;;;;;;4129007;28;20061;-72
2022/01/03 05:06:42;;;;;;;36.55;3.97;;;7.60;82.70;;;;;;4129016;28;20622;-75
2022/01/03 05:08:43;;;;;;;32.97;3.83;;;7.70;82.70;;;;;;4133767;28;20034;-74
2022/01/03 05:10:43;;;;;;;36.47;4.28;;;7.70;82.70;;;;;;4125708;28;20045;-74
2022/01/03 05:12:44;;;;;;;31.05;3.30;;;7.60;82.60;;;;;;4129594;28;20053;-74
2022/01/03 05:14:45;;;;;;;41.80;4.57;;;7.60;82.70;;;;;;4126504;28;20475;-74
2022/01/03 05:16:45;;;;;;;38.03;4.35;;;7.60;82.60;;;;;;4127187;28;20411;-74
2022/01/03 05:18:46;;;;;;;34.53;3.53;;;7.60;82.60;;;;;;4128573;28;20025;-74
2022/01/03 05:20:46;;;;;;;38.75;3.67;;;7.60;83.30;;;;;;4128571;28;20026;-74
2022/01/03 05:22:47;;;;;;;36.42;3.90;;;7.70;82.70;;;;;;4120723;28;20495;-74
2022/01/03 05:24:47;;;;;;;33.75;4.57;;;7.60;82.60;;;;;;4112486;28;20046;-74
2022/01/03 05:26:49;;;;;;;40.20;5.15;;;7.70;82.70;;;;;;4125544;28;20343;-74
2022/01/03 05:28:49;;;;;;;36.28;4.75;;;7.60;82.50;;;;;;4126821;28;20638;-74
2022/01/03 05:30:50;;;;;;;36.50;4.25;;;7.60;82.50;;;;;;4128794;28;20026;-74
2022/01/03 05:32:51;;;;;;;36.25;4.13;;;7.70;82.60;;;;;;4125469;28;20041;-74
2022/01/03 05:34:51;;;;;;;27.67;3.90;;;7.60;82.70;;;;;;4126473;28;20030;-74
2022/01/03 05:36:52;;;;;;;29.10;5.03;;;7.60;82.60;;;;;;4120210;28;20030;-74
2022/01/03 05:38:53;;;;;;;35.60;4.70;;;7.70;82.60;;;;;;4122957;28;20030;-74
2022/01/03 05:40:53;;;;;;;44.47;4.20;;;7.60;82.50;;;;;;4108846;28;20034;-74
2022/01/03 05:42:54;;;;;;;33.53;4.53;;;7.70;82.40;;;;;;4128339;28;20038;-74
2022/01/03 05:44:55;;;;;;;32.45;4.85;;;7.70;82.40;;;;;;4113986;28;20446;-74
2022/01/03 05:46:56;;;;;;;35.42;5.15;;;7.70;82.20;;;;;;4122230;28;20062;-74
2022/01/03 05:48:57;;;;;;;34.53;5.07;;;7.70;82.20;;;;;;4128573;28;20045;-74
2022/01/03 05:50:57;;;;;;;41.85;5.38;;;7.60;82.10;;;;;;4125830;28;20089;-74
2022/01/03 05:52:58;;;;;;;37.67;4.22;;;7.70;82.10;;;;;;4119524;28;20060;-75
2022/01/03 05:54:58;;;;;;;41.55;7.53;;;7.70;82.00;;;;;;4127556;28;20057;-74
2022/01/03 05:56:59;;;;;;;35.42;4.80;;;7.70;81.80;;;;;;4111457;28;20034;-74
2022/01/03 05:59:00;;;;;;;37.03;5.05;;;7.70;81.80;;;;;;4128089;28;20114;-74
2022/01/03 06:01:01;;;;;;;36.95;4.93;;;7.70;81.70;;;;;;4105555;28;20058;-74
2022/01/03 06:03:02;;;;;;;36.72;4.07;;;7.70;81.70;;;;;;4128650;28;20034;-74
2022/01/03 06:05:05;;;;;;;37.90;5.57;;;7.70;81.70;;;;;;4127582;28;20405;-74
2022/01/03 06:07:07;;;;;;;36.72;4.22;;;7.70;81.60;;;;;;4128511;28;20394;-74
2022/01/03 06:09:08;;;;;;;38.63;5.30;;;7.70;81.60;;;;;;4110292;28;20479;-74
2022/01/03 06:11:08;;;;;;;33.20;4.45;;;7.70;81.60;;;;;;4125905;28;20038;-75
2022/01/03 06:13:09;;;;;;;51.92;6.75;;;7.70;81.60;;;;;;4135236;28;20052;-74
2022/01/03 06:15:10;;;;;;;38.75;4.50;;;7.70;81.60;;;;;;4127350;28;20034;-74
2022/01/03 06:17:10;;;;;;;37.20;5.05;;;7.70;81.60;;;;;;4136239;28;20179;-74
2022/01/03 06:19:11;;;;;;;40.80;5.18;;;7.70;81.70;;;;;;4109837;28;20163;-74
2022/01/03 06:21:12;;;;;;;33.00;4.82;;;7.70;81.60;;;;;;4124994;28;20035;-74
2022/01/03 06:23:13;;;;;;;39.45;4.80;;;7.70;81.60;;;;;;4126179;28;20555;-74
2022/01/03 06:25:14;;;;;;;39.85;5.35;;;7.70;81.60;;;;;;4127420;28;20049;-72
2022/01/03 06:27:16;;;;;;;45.58;5.63;;;7.70;81.60;;;;;;4126088;28;20023;-73
2022/01/03 06:29:18;;;;;;;43.35;5.93;;;7.70;81.60;;;;;;4143387;28;20121;-72
2022/01/03 06:31:19;;;;;;;38.15;5.53;;;7.70;81.70;;;;;;4125903;28;20045;-72
2022/01/03 06:33:19;;;;;;;36.97;4.95;;;7.70;81.70;;;;;;4127160;28;20036;-72
2022/01/03 06:35:20;;;;;;;48.47;5.68;;;7.70;81.90;;;;;;4117262;28;20034;-72
2022/01/03 06:37:21;;;;;;;46.90;5.78;;;7.70;81.70;;;;;;4117326;28;20101;-72
2022/01/03 06:39:21;;;;;;;43.63;5.28;;;7.70;81.80;;;;;;4106692;28;20032;-73
2022/01/03 06:41:22;;;;;;;55.20;6.97;;;7.70;81.90;;;;;;4100202;28;20049;-73
2022/01/03 06:43:23;;;;;;;46.40;5.53;;;7.70;82.00;;;;;;4125939;28;20041;-73
2022/01/03 06:45:23;;;;;;;49.70;7.50;;;7.70;81.90;;;;;;4111080;28;20030;-73
2022/01/03 06:47:24;;;;;;;39.95;5.10;;;7.70;81.90;;;;;;4116684;28;20491;-72
2022/01/03 06:49:25;;;;;;;40.55;6.38;;;7.70;81.90;;;;;;4126812;28;20121;-72
2022/01/03 06:51:28;;;;;;;53.42;5.65;;;7.60;81.70;;;;;;4125039;28;20058;-72
2022/01/03 06:53:29;;;;;;;43.90;5.82;;;7.70;81.80;;;;;;4108801;28;20033;-73
2022/01/03 06:55:30;;;;;;;45.28;6.07;;;7.70;81.70;;;;;;4126385;28;20030;-72
2022/01/03 06:57:31;;;;;;;55.35;6.72;;;7.70;81.70;;;;;;4127422;28;20406;-72
2022/01/03 06:59:31;;;;;;;54.97;6.82;;;7.70;81.60;;;;;;4126083;28;20097;-73
2022/01/03 07:01:32;;;;;;;46.95;5.85;;;7.70;81.70;;;;;;4106976;28;20035;-73
2022/01/03 07:03:33;;;;;;;42.00;6.72;;;7.70;81.60;;;;;;4126193;28;20525;-73
2022/01/03 07:05:33;;;;;;;56.50;6.93;;;7.70;81.60;;;;;;4110871;28;20117;-73
2022/01/03 07:07:34;;;;;;;39.80;5.50;;;7.70;81.50;;;;;;4127802;28;20421;-73
2022/01/03 07:09:34;;;;;;;49.40;6.43;;;7.70;81.60;;;;;;4126604;28;20064;-72
2022/01/03 07:11:35;;;;;;;50.55;6.43;;;7.70;81.50;;;;;;4107499;28;20505;-72
2022/01/03 07:13:44;;;;;;;45.63;6.68;;;7.80;81.60;;;;;;4127260;28;20057;-73
2022/01/03 07:20:23;;;;;;;53.38;6.22;;;7.80;81.50;;;;;;4126807;28;20026;-72
2022/01/03 07:22:24;;;;;;;44.85;6.47;;;7.80;81.50;;;;;;4125622;28;20627;-72
2022/01/03 07:24:24;;;;;;;61.05;6.47;;;7.80;81.50;;;;;;4126207;28;20033;-72
2022/01/03 07:26:25;;;;;;;63.05;7.55;;;7.70;81.40;;;;;;4110803;28;20080;-72
2022/01/03 07:28:26;;;;;;;53.40;5.85;;;7.70;81.40;;;;;;4109208;28;20031;-72
2022/01/03 07:30:26;;;;;;;50.97;7.15;;;7.70;82.20;;;;;;4142860;28;20046;-72
2022/01/03 07:32:27;;;;;;;52.55;6.38;;;7.70;81.40;;;;;;4123860;28;20027;-72
2022/01/03 07:34:28;;;;;;;49.20;6.32;;;7.70;81.50;;;;;;4125571;28;20089;-73
2022/01/03 07:36:30;;;;;;;48.58;5.68;;;7.70;81.50;;;;;;4122215;28;20344;-72
2022/01/03 07:38:30;;;;;;;47.85;7.00;;;7.70;81.40;;;;;;4118196;28;20070;-72
2022/01/03 07:40:31;;;;;;;48.08;5.63;;;7.70;81.40;;;;;;4127010;28;20027;-72
2022/01/03 07:42:32;;;;;;;41.78;6.20;;;7.70;81.40;;;;;;4122980;28;20046;-72
2022/01/03 07:44:32;;;;;;;35.65;4.68;;;7.70;81.30;;;;;;4129824;28;20038;-72
2022/01/03 07:46:34;;;;;;;54.25;5.55;;;7.80;81.50;;;;;;4157380;28;20478;-72
2022/01/03 07:48:34;;;;;;;42.55;6.93;;;7.80;81.50;;;;;;4126404;28;20042;-73
2022/01/03 07:50:35;;;;;;;41.58;5.40;;;7.70;81.40;;;;;;4120317;28;20560;-72
2022/01/03 07:52:35;;;;;;;50.00;5.63;;;7.70;81.40;;;;;;4111492;28;20052;-73
2022/01/03 07:54:36;;;;;;;40.53;6.75;;;7.70;81.40;;;;;;4123519;28;20030;-72
2022/01/03 07:56:37;;;;;;;59.65;6.63;;;7.70;81.40;;;;;;4128034;28;20023;-72
2022/01/03 07:58:38;;;;;;;50.33;6.28;;;7.80;81.40;;;;;;4109353;28;20082;-72
2022/01/03 08:00:38;;;;;;;55.20;7.22;;;7.80;81.40;;;;;;4124969;28;20507;-72
2022/01/03 08:02:40;;;;;;;53.08;7.00;;;7.80;81.30;;;;;;4095067;28;20259;-72
2022/01/03 08:04:41;;;;;;;61.45;7.20;;;7.70;81.10;;;;;;4130104;28;20045;-72
2022/01/03 08:06:42;;;;;;;50.15;5.80;;;7.80;81.10;;;;;;4146962;28;20022;-72
2022/01/03 08:08:42;;;;;;;55.15;6.72;;;7.80;81.20;;;;;;4130512;28;20036;-73
2022/01/03 08:10:45;;;;;;;55.55;6.75;;;7.70;81.10;;;;;;4129638;28;20041;-73
2022/01/03 08:12:45;;;;;;;48.70;6.57;;;7.70;81.10;;;;;;4113046;28;20058;-72
2022/01/03 08:14:46;;;;;;;42.22;6.03;;;7.70;81.00;;;;;;4127680;28;20018;-72
2022/01/03 08:16:47;;;;;;;46.17;7.78;;;7.80;81.10;;;;;;4133106;28;20026;-72
2022/01/03 08:18:47;;;;;;;53.53;5.70;;;7.80;80.90;;;;;;4127702;28;20026;-72
2022/01/03 08:20:50;;;;;;;66.53;6.68;;;7.70;80.90;;;;;;4128521;28;20048;-72
2022/01/03 08:22:50;;;;;;;54.40;7.50;;;7.70;80.80;;;;;;4129314;28;20607;-72
2022/01/03 08:24:51;;;;;;;57.35;6.28;;;7.70;80.80;;;;;;4128589;28;20032;-72
2022/01/03 08:26:51;;;;;;;60.55;7.53;;;7.70;80.80;;;;;;4125992;28;20042;-72
2022/01/03 08:28:53;;;;;;;39.90;5.82;;;7.70;80.70;;;;;;4130632;28;20233;-72
2022/01/03 08:30:54;;;;;;;48.30;5.78;;;7.70;80.80;;;;;;4130290;28;20034;-72
2022/01/03 08:32:55;;;;;;;51.20;6.47;;;7.70;80.60;;;;;;4130211;28;20031;-72
2022/01/03 08:34:56;;;;;;;41.05;5.32;;;7.70;80.50;;;;;;4124013;28;20030;-72
2022/01/03 08:36:56;;;;;;;49.97;6.07;;;7.70;80.60;;;;;;4119549;28;20023;-72
2022/01/03 08:38:57;;;;;;;56.42;7.43;;;7.70;80.60;;;;;;4122820;28;20030;-72
2022/01/03 08:40:57;;;;;;;50.25;5.93;;;7.70;80.40;;;;;;4129743;28;20085;-72
2022/01/03 08:42:59;;;;;;;50.75;6.35;;;7.70;80.50;;;;;;4125043;28;20495;-72
2022/01/03 08:45:00;;;;;;;36.97;6.72;;;7.70;80.30;;;;;;4122772;28;20206;-72
2022/01/03 08:47:01;;;;;;;53.53;7.93;;;7.70;80.30;;;;;;4139067;28;20034;-72
2022/01/03 08:49:02;;;;;;;41.03;5.85;;;7.70;80.20;;;;;;4129342;28;20100;-72
2022/01/03 08:51:03;;;;;;;54.15;7.00;;;7.70;80.30;;;;;;4144469;28;20038;-72
2022/01/03 08:53:04;;;;;;;49.03;5.85;;;7.70;80.10;;;;;;4114439;28;20085;-72
2022/01/03 08:55:05;;;;;;;44.95;7.95;;;7.70;80.10;;;;;;4126909;28;20109;-72
2022/01/03 08:57:06;;;;;;;43.65;6.60;;;7.70;80.20;;;;;;4128228;28;20573;-72
2022/01/03 08:59:06;;;;;;;42.28;5.93;;;7.70;80.00;;;;;;4129841;28;20030;-72
2022/01/03 09:01:07;;;;;;;48.33;6.50;;;7.80;80.10;;;;;;4112336;28;20475;-72
2022/01/03 09:03:08;;;;;;;58.55;8.98;;;7.70;80.10;;;;;;4116619;28;20034;-73
2022/01/03 09:05:08;;;;;;;51.00;6.65;;;7.80;80.20;;;;;;4127564;28;20045;-74
2022/01/03 09:07:09;;;;;;;35.42;6.43;;;7.80;80.00;;;;;;4128961;28;20030;-74
2022/01/03 09:09:10;;;;;;;51.65;6.65;;;7.80;80.70;;;;;;4120240;28;20582;-74
2022/01/03 09:11:10;;;;;;;54.63;6.40;;;7.80;79.80;;;;;;4128591;28;20039;-74
2022/01/03 09:13:11;;;;;;;35.30;6.07;;;7.80;79.70;;;;;;4129496;28;20379;-74
2022/01/03 09:15:12;;;;;;;54.80;5.65;;;7.80;79.70;;;;;;4126985;28;20077;-74
2022/01/03 09:17:12;;;;;;;45.17;6.38;;;7.80;79.70;;;;;;4121257;28;20454;-74
2022/01/03 09:19:13;;;;;;;48.85;5.60;;;7.80;79.50;;;;;;4112808;28;20105;-74
2022/01/03 09:21:13;;;;;;;45.38;6.30;;;7.80;79.40;;;;;;4129722;28;20118;-74
2022/01/03 09:23:20;;;;;;;40.05;5.88;;;7.80;79.30;;;;;;4128831;28;20034;-74
2022/01/03 09:29:55;;;;;;;45.58;6.63;;;7.90;79.20;;;;;;4128580;28;20032;-72
2022/01/03 09:31:56;;;;;;;42.63;5.82;;;7.90;79.20;;;;;;4129361;28;20054;-72
2022/01/03 09:33:58;;;;;;;42.40;5.20;;;7.90;79.20;;;;;;4126570;28;20068;-72
2022/01/03 09:35:58;;;;;;;47.75;5.53;;;7.90;79.20;;;;;;4125599;28;20109;-72
2022/01/03 09:37:59;;;;;;;42.95;6.88;;;7.90;79.20;;;;;;4119255;28;20031;-72
2022/01/03 09:40:00;;;;;;;45.65;5.68;;;7.90;79.10;;;;;;4110967;28;20034;-72
2022/01/03 09:42:05;;;;;;;42.33;5.32;;;7.90;79.10;;;;;;4128494;28;20455;-72
2022/01/03 09:44:11;;;;;;;46.05;5.50;;;7.90;79.00;;;;;;4095580;28;20578;-72
2022/01/03 09:46:11;;;;;;;39.70;6.07;;;7.90;79.10;;;;;;4122681;28;20030;-72
2022/01/03 09:48:14;;;;;;;42.97;5.55;;;7.90;79.00;;;;;;4135498;28;20157;-72
2022/01/03 09:50:17;;;;;;;44.42;5.70;;;7.90;79.00;;;;;;4109508;28;20071;-72
2022/01/03 09:52:22;;;;;;;44.85;5.80;;;7.90;79.10;;;;;;4127062;28;20034;-72
2022/01/03 09:54:22;;;;;;;41.60;6.10;;;7.90;79.10;;;;;;4111771;28;20494;-72
2022/01/03 09:56:23;;;;;;;51.20;7.07;;;7.90;79.00;;;;;;4126549;28;20163;-72
2022/01/03 09:58:23;;;;;;;40.15;5.10;;;7.90;79.10;;;;;;4129295;28;20374;-72
2022/01/03 10:00:24;;;;;;;41.95;6.65;;;7.90;79.10;;;;;;4109937;28;20041;-74
2022/01/03 10:02:25;;;;;;;43.70;6.15;;;8.00;79.10;;;;;;4127366;28;20038;-75
2022/01/03 10:04:26;;;;;;;63.75;6.65;;;7.90;79.00;;;;;;4111206;28;20039;-75
2022/01/03 10:06:27;;;;;;;45.88;5.38;;;7.90;79.10;;;;;;4141194;28;20449;-74
2022/01/03 10:08:27;;;;;;;48.13;7.13;;;7.90;79.20;;;;;;4127333;28;20117;-74
2022/01/03 10:10:28;;;;;;;60.20;8.40;;;7.90;79.30;;;;;;4126173;28;20045;-74
2022/01/03 10:12:28;;;;;;;64.65;6.57;;;7.90;79.50;;;;;;4127745;28;20022;-74
2022/01/03 10:14:29;;;;;;;52.13;7.53;;;7.90;79.50;;;;;;4128722;28;20031;-74
2022/01/03 10:16:30;;;;;;;50.00;6.28;;;7.90;79.60;;;;;;4128338;28;20080;-74
2022/01/03 10:18:31;;;;;;;51.40;6.18;;;7.90;79.50;;;;;;4117545;28;20394;-74
2022/01/03 10:20:34;;;;;;;41.67;5.55;;;7.90;79.30;;;;;;4128456;28;20102;-74
2022/01/03 10:22:35;;;;;;;45.53;5.80;;;7.90;79.40;;;;;;4111671;28;20097;-74
2022/01/03 10:24:38;;;;;;;44.22;6.45;;;8.00;79.50;;;;;;4127156;28;20030;-74
2022/01/03 10:26:39;;;;;;;48.33;6.63;;;8.00;79.30;;;;;;4125349;28;20096;-74
2022/01/03 10:28:39;;;;;;;49.60;6.05;;;8.00;79.40;;;;;;4125737;28;20030;-74
2022/01/03 10:30:43;;;;;;;47.00;6.40;;;8.00;79.30;;;;;;4127038;28;20033;-74
2022/01/03 10:32:43;;;;;;;;;;;8.00;79.40;;;;;;4128146;28;20080;-74
2022/01/03 10:34:44;;;;;;;42.80;6.80;;;8.00;79.20;;;;;;4118477;28;20433;-75
2022/01/03 10:36:47;;;;;;;48.45;6.65;;;8.10;79.20;;;;;;4114744;28;20018;-74
2022/01/03 10:38:50;;;;;;;63.03;8.38;;;8.00;79.10;;;;;;4109714;28;20026;-74
2022/01/03 10:40:50;;;;;;;43.92;6.20;;;8.00;79.00;;;;;;4126822;28;20030;-74
2022/01/03 10:42:52;;;;;;;53.08;7.28;;;8.10;79.00;;;;;;4125987;28;20482;-74
2022/01/03 10:44:52;;;;;;;39.50;5.70;;;8.10;79.00;;;;;;4126537;28;20066;-74
2022/01/03 10:46:53;;;;;;;50.03;6.63;;;8.10;79.00;;;;;;4128348;28;20030;-74
2022/01/03 10:49:19;;;;;;;51.88;8.05;;;8.10;79.00;;;;;;4126822;28;20109;-74
2022/01/03 10:51:22;;;;;;;45.63;5.95;;;8.10;79.00;;;;;;4114641;28;20031;-74
2022/01/03 10:53:43;;;;;;;49.10;6.45;;;8.10;79.10;;;;;;4125815;28;20483;-74
2022/01/03 10:55:43;;;;;;;46.67;6.25;;;8.10;78.90;;;;;;4126953;28;20031;-74
2022/01/03 10:57:58;;;;;;;49.65;5.68;;;8.20;78.90;;;;;;4128547;28;20405;-74
2022/01/03 11:00:15;;;;;;;50.10;5.90;;;8.20;78.30;;;;;;4109392;28;20562;-74
2022/01/03 11:02:16;;;;;;;49.47;6.05;;;8.20;78.30;;;;;;4109814;28;20026;-74
2022/01/03 11:04:30;;;;;;;53.85;6.57;;;8.20;78.40;;;;;;4110207;28;20033;-74
2022/01/03 11:10:59;;;;;;;47.95;6.03;;;8.20;78.00;;;;;;4118686;28;20027;-74
2022/01/03 11:13:16;;;;;;;57.67;7.30;;;8.20;78.00;;;;;;4110231;28;20054;-75
2022/01/03 11:15:20;;;;;;;47.03;6.63;;;8.20;77.90;;;;;;4133022;28;20183;-74
2022/01/03 11:17:25;;;;;;;42.47;5.60;;;8.20;78.00;;;;;;4127177;28;20062;-74
2022/01/03 11:19:35;;;;;;;50.60;7.57;;;8.20;78.10;;;;;;4108416;28;20031;-74
2022/01/03 11:21:44;;;;;;;45.88;5.30;;;8.30;78.20;;;;;;4125573;28;20764;-74
2022/01/03 11:23:59;;;;;;;41.30;5.70;;;8.20;78.00;;;;;;4126406;28;20019;-74
2022/01/03 11:26:08;;;;;;;47.40;6.70;;;8.20;78.10;;;;;;4123606;28;20030;-74
2022/01/03 11:28:09;;;;;;;49.03;6.07;;;8.20;78.30;;;;;;4126920;28;20037;-74
2022/01/03 11:30:11;;;;;;;51.88;6.50;;;8.30;78.20;;;;;;4125128;28;20108;-74
2022/01/03 11:32:11;;;;;;;54.42;7.00;;;8.30;78.30;;;;;;4126816;28;20141;-74
2022/01/03 11:34:12;;;;;;;41.28;7.68;;;8.30;78.30;;;;;;4125371;28;20027;-74
2022/01/03 11:36:13;;;;;;;64.72;7.90;;;8.30;78.20;;;;;;4121710;28;20411;-74
2022/01/03 11:38:15;;;;;;;48.97;6.60;;;8.30;78.10;;;;;;4119308;28;20027;-74
2022/01/03 11:40:16;;;;;;;46.67;6.00;;;8.30;78.10;;;;;;4126751;28;20422;-74
2022/01/03 11:42:17;;;;;;;44.75;6.28;;;8.40;78.10;;;;;;4130180;28;20166;-74